createdAt,value
2023-04-25T00:02:58.545Z,4.13
2023-04-25T00:09:00.880Z,5.40
2023-04-25T00:15:02.943Z,5.47
2023-04-25T00:21:07.191Z,7.03
2023-04-25T00:27:09.091Z,5.30
2023-04-25T00:33:11.294Z,5.50
2023-04-25T00:39:14.421Z,5.23
2023-04-25T00:45:18.075Z,6.00
2023-04-25T00:51:22.675Z,5.33
2023-04-25T00:57:24.641Z,4.90
2023-04-25T01:03:29.788Z,5.00
2023-04-25T01:09:33.030Z,4.53
2023-04-25T01:15:36.771Z,5.00
2023-04-25T01:21:38.729Z,4.00
2023-04-25T01:27:41.734Z,3.80
2023-04-25T01:33:43.668Z,4.70
2023-04-25T01:39:45.919Z,5.50
2023-04-25T01:45:49.000Z,4.80
2023-04-25T01:51:54.364Z,4.47
2023-04-25T01:57:56.275Z,5.37
2023-04-25T02:03:58.399Z,5.57
2023-04-25T02:10:00.664Z,5.93
2023-04-25T02:16:02.925Z,4.57
2023-04-25T02:22:04.984Z,5.20
2023-04-25T02:28:06.876Z,6.40
2023-04-25T02:34:08.871Z,4.40
2023-04-25T02:40:11.411Z,5.60
2023-04-25T02:46:13.313Z,5.27
2023-04-25T02:52:15.409Z,5.70
2023-04-25T02:58:17.308Z,5.60
2023-04-25T03:04:20.336Z,6.00
2023-04-25T03:10:22.290Z,6.90
2023-04-25T03:16:25.029Z,6.00
2023-04-25T03:22:26.973Z,6.60
2023-04-25T03:28:29.227Z,6.53
2023-04-25T03:34:31.603Z,6.40
2023-04-25T03:40:33.572Z,9.37
2023-04-25T03:46:35.495Z,7.90
2023-04-25T03:52:37.420Z,10.27
2023-04-25T03:58:39.336Z,11.13
2023-04-25T04:04:41.664Z,10.10
2023-04-25T04:10:43.702Z,10.10
2023-04-25T04:16:45.993Z,7.87
2023-04-25T04:22:48.180Z,6.40
2023-04-25T04:28:55.342Z,7.33
2023-04-25T04:34:57.442Z,6.87
2023-04-25T04:40:59.331Z,6.97
2023-04-25T04:47:01.441Z,4.57
2023-04-25T04:53:05.209Z,6.30
2023-04-25T04:59:08.055Z,4.50
2023-04-25T05:05:10.073Z,4.13
2023-04-25T05:11:12.373Z,3.43
2023-04-25T05:17:14.304Z,4.30
2023-04-25T05:23:16.435Z,4.27
2023-04-25T05:29:18.318Z,4.23
2023-04-25T05:35:20.264Z,4.00
2023-04-25T05:41:22.176Z,3.50
2023-04-25T05:47:24.109Z,4.30
2023-04-25T05:53:25.993Z,4.80
2023-04-25T05:59:27.899Z,4.70
2023-04-25T06:05:30.325Z,4.33
2023-04-25T06:11:32.347Z,5.83
2023-04-25T06:17:34.704Z,4.70
2023-04-25T06:23:36.620Z,6.07
2023-04-25T06:29:38.544Z,4.17
2023-04-25T06:35:40.489Z,3.77
2023-04-25T06:41:42.368Z,3.63
2023-04-25T06:47:44.277Z,3.43
2023-04-25T06:53:46.255Z,2.87
2023-04-25T06:59:48.144Z,3.60
2023-04-25T07:05:50.180Z,3.60
2023-04-25T07:11:52.129Z,3.43
2023-04-25T07:17:54.056Z,2.70
2023-04-25T07:23:56.001Z,3.43
2023-04-25T07:29:58.613Z,4.50
2023-04-25T07:36:00.824Z,3.47
2023-04-25T07:42:03.334Z,4.37
2023-04-25T07:48:05.497Z,3.27
2023-04-25T07:54:07.887Z,3.53
2023-04-25T08:00:10.574Z,5.90
2023-04-25T08:06:12.695Z,3.47
2023-04-25T08:12:14.972Z,2.70
2023-04-25T08:18:17.726Z,3.00
2023-04-25T08:24:19.879Z,2.67
2023-04-25T08:30:22.094Z,2.60
2023-04-25T08:42:36.237Z,2.73
2023-04-25T08:48:38.376Z,3.17
2023-04-25T08:54:48.281Z,2.37
2023-04-25T09:00:51.991Z,3.13
2023-04-25T09:06:53.914Z,3.57
2023-04-25T09:13:21.644Z,2.27
2023-04-25T09:19:38.926Z,2.50
2023-04-25T09:25:43.985Z,2.70
2023-04-25T09:31:45.889Z,2.90
2023-04-25T09:37:47.830Z,3.03
2023-04-25T09:43:51.463Z,2.40
2023-04-25T09:49:56.006Z,2.87
2023-04-25T09:56:00.762Z,2.37
2023-04-25T10:02:03.688Z,2.20
2023-04-25T10:08:07.626Z,1.87
2023-04-25T10:14:10.769Z,2.10
2023-04-25T10:20:13.966Z,2.90
2023-04-25T10:26:17.270Z,1.87
2023-04-25T10:32:19.481Z,1.70
2023-04-25T10:38:21.558Z,2.10
2023-04-25T10:44:23.609Z,1.83
2023-04-25T10:50:40.716Z,2.47
2023-04-25T10:56:45.552Z,2.40
2023-04-25T11:02:54.221Z,2.33
2023-04-25T11:08:56.314Z,1.93
2023-04-25T11:15:06.903Z,2.20
2023-04-25T11:21:09.110Z,1.90
2023-04-25T11:27:11.120Z,2.60
2023-04-25T11:33:13.045Z,1.90
2023-04-25T11:39:16.240Z,2.00
2023-04-25T11:45:19.713Z,2.00
2023-04-25T11:51:21.828Z,2.70
2023-04-25T11:57:23.748Z,2.40
2023-04-25T12:03:28.323Z,2.53
2023-04-25T12:09:34.835Z,2.50
2023-04-25T12:15:37.497Z,2.20
2023-04-25T12:21:50.508Z,2.10
2023-04-25T12:28:24.935Z,2.80
2023-04-25T12:34:26.937Z,2.40
2023-04-25T12:40:28.816Z,1.80
2023-04-25T12:46:30.890Z,2.27
2023-04-25T12:52:32.825Z,2.50
2023-04-25T12:58:35.223Z,1.83
2023-04-25T13:04:37.312Z,2.00
2023-04-25T13:10:40.386Z,2.07
2023-04-25T13:16:42.576Z,2.03
2023-04-25T13:22:46.623Z,2.13
2023-04-25T13:28:48.554Z,1.77
2023-04-25T13:34:51.750Z,1.80
2023-04-25T13:40:54.321Z,2.03
2023-04-25T13:46:56.373Z,2.53
2023-04-25T13:52:58.306Z,1.83
2023-04-25T13:59:00.211Z,1.97
2023-04-25T14:05:04.358Z,2.03
2023-04-25T14:11:06.552Z,1.53
2023-04-25T14:17:09.753Z,1.70
2023-04-25T14:23:11.688Z,1.57
2023-04-25T14:29:13.990Z,1.67
2023-04-25T14:35:16.045Z,1.83
2023-04-25T14:41:18.013Z,1.70
2023-04-25T14:47:19.929Z,1.47
2023-04-25T14:53:21.806Z,1.70
2023-04-25T14:59:24.329Z,1.20
2023-04-25T15:05:26.539Z,1.57
2023-04-25T15:11:28.619Z,2.20
2023-04-25T15:17:32.114Z,3.03
2023-04-25T15:23:34.123Z,2.13
2023-04-25T15:29:36.755Z,2.00
2023-04-25T15:35:38.696Z,1.70
2023-04-25T15:41:40.647Z,2.07
2023-04-25T15:47:43.044Z,2.87
2023-04-25T15:53:44.970Z,1.70
2023-04-25T15:59:49.020Z,3.57
2023-04-25T16:05:51.092Z,2.00
2023-04-25T16:11:53.258Z,2.00
2023-04-25T16:17:55.217Z,2.60
2023-04-25T16:23:57.160Z,2.40
2023-04-25T16:29:59.105Z,1.50
2023-04-25T16:36:01.013Z,1.67
2023-04-25T16:42:04.927Z,1.30
2023-04-25T16:48:07.153Z,1.77
2023-04-25T16:54:09.176Z,1.77
2023-04-25T17:00:12.990Z,1.50
2023-04-25T17:06:15.026Z,1.50
2023-04-25T17:12:19.550Z,1.80
2023-04-25T17:18:24.479Z,1.80
2023-04-25T17:24:26.591Z,2.50
2023-04-25T17:30:28.479Z,1.50
2023-04-25T17:36:30.810Z,1.70
2023-04-25T17:42:32.752Z,2.13
2023-04-25T17:48:34.672Z,1.90
2023-04-25T17:54:36.595Z,1.53
2023-04-25T18:00:39.123Z,1.40
2023-04-25T18:06:41.414Z,2.23
2023-04-25T18:12:43.353Z,2.30
2023-04-25T18:18:52.825Z,3.30
2023-04-25T18:24:55.221Z,2.40
2023-04-25T18:30:57.979Z,1.70
2023-04-25T18:36:59.897Z,2.63
2023-04-25T18:43:01.792Z,2.47
2023-04-25T18:49:04.043Z,2.20
2023-04-25T18:55:06.560Z,1.77
2023-04-25T19:01:09.003Z,1.80
2023-04-25T19:07:11.217Z,2.23
2023-04-25T19:13:13.906Z,1.50
2023-04-25T19:19:15.776Z,1.87
2023-04-25T19:25:17.766Z,2.13
2023-04-25T19:31:19.934Z,2.80
2023-04-25T19:37:21.930Z,1.17
2023-04-25T19:43:23.878Z,1.90
2023-04-25T19:49:27.107Z,1.87
2023-04-25T19:55:29.128Z,2.03
2023-04-25T20:01:31.185Z,2.93
2023-04-25T20:07:33.362Z,1.87
2023-04-25T20:13:35.257Z,2.00
2023-04-25T20:19:38.215Z,2.13
2023-04-25T20:25:40.549Z,1.70
2023-04-25T20:31:42.617Z,1.90
2023-04-25T20:37:44.714Z,1.93
2023-04-25T20:43:47.313Z,2.03
2023-04-25T20:49:49.917Z,1.80
2023-04-25T20:55:52.271Z,1.77
2023-04-25T21:01:54.753Z,1.83
2023-04-25T21:07:57.545Z,1.90
2023-04-25T21:13:59.456Z,1.90
2023-04-25T21:20:01.350Z,2.17
2023-04-25T21:26:03.303Z,1.67
2023-04-25T21:32:06.238Z,1.90
2023-04-25T21:38:08.154Z,1.80
2023-04-25T21:44:12.478Z,1.80
2023-04-25T21:50:15.214Z,1.90
2023-04-25T21:56:17.101Z,2.10
2023-04-25T22:02:19.340Z,1.43
2023-04-25T22:08:21.877Z,2.87
2023-04-25T22:14:25.114Z,2.30
2023-04-25T22:20:27.976Z,1.90
2023-04-25T22:26:30.205Z,2.40
2023-04-25T22:32:32.183Z,2.90
2023-04-25T22:38:34.121Z,2.33
2023-04-25T22:44:36.666Z,2.30
2023-04-25T22:50:40.576Z,2.27
2023-04-25T22:56:42.462Z,1.77
2023-04-25T23:02:46.230Z,1.83
2023-04-25T23:08:48.714Z,2.30
2023-04-25T23:14:52.690Z,3.30
2023-04-25T23:20:54.577Z,2.50
2023-04-25T23:26:56.793Z,2.53
2023-04-25T23:32:58.779Z,2.17
2023-04-25T23:39:02.123Z,2.33
2023-04-25T23:45:06.784Z,2.60
2023-04-25T23:51:08.710Z,2.10
2023-04-25T23:57:12.187Z,2.47
